Time;durP1;ratioP1;P1;durP2;ratioP2;P2;SDS_P1;SDS_P2;PMS_P1;PMS_P2;Temp;Humidity;BMP_temperature;BMP_pressure;BME280_temperature;BME280_humidity;BME280_pressure;Samples;Min_cycle;Max_cycle;Signal;HPM_P1;HPM_P2
2021/10/24 00:00:54;;;;;;;12.93;8.10;;;;;;;7.65;74.37;95792.97;5113070;27;20032;-69
2021/10/24 00:03:19;;;;;;;13.70;8.80;;;;;;;7.59;74.65;95794.13;5132363;27;20023;-68
2021/10/24 00:05:45;;;;;;;12.88;8.38;;;;;;;7.49;75.12;95789.56;5113885;27;20035;-68
2021/10/24 00:08:10;;;;;;;15.18;9.52;;;;;;;7.57;75.00;95801.13;5131180;27;20038;-68
2021/10/24 00:10:36;;;;;;;15.30;9.30;;;;;;;7.58;75.27;95808.00;5131054;27;20039;-68
2021/10/24 00:13:01;;;;;;;12.65;7.70;;;;;;;7.63;74.65;95807.72;5131016;27;20034;-68
2021/10/24 00:15:26;;;;;;;12.77;8.27;;;;;;;7.66;74.43;95807.59;5132245;27;20076;-68
2021/10/24 00:17:52;;;;;;;12.00;8.02;;;;;;;7.65;74.29;95808.47;5130899;27;20031;-68
2021/10/24 00:20:17;;;;;;;13.30;8.50;;;;;;;7.61;73.77;95804.41;5130875;27;20413;-68
2021/10/24 00:22:43;;;;;;;13.43;8.70;;;;;;;7.50;74.31;95804.16;5130813;27;20420;-69
2021/10/24 00:25:09;;;;;;;13.55;8.57;;;;;;;7.48;74.62;95793.91;5113762;27;20424;-69
2021/10/24 00:27:34;;;;;;;12.38;7.80;;;;;;;7.56;74.38;95807.25;5130935;27;20555;-69
2021/10/24 00:29:59;;;;;;;13.40;8.60;;;;;;;7.37;74.79;95801.41;5131172;27;20023;-70
2021/10/24 00:32:25;;;;;;;11.88;6.72;;;;;;;7.32;75.13;95801.66;5096341;27;20466;-68
2021/10/24 00:34:51;;;;;;;10.13;6.90;;;;;;;7.36;75.36;95808.34;5130673;27;20465;-68
2021/10/24 00:37:16;;;;;;;11.93;6.85;;;;;;;7.30;75.10;95798.34;5113635;28;20119;-68
2021/10/24 00:39:42;;;;;;;11.52;6.70;;;;;;;7.33;74.98;95808.50;5130674;27;20027;-68
2021/10/24 00:42:07;;;;;;;11.27;6.97;;;;;;;7.43;75.02;95820.91;5132190;27;20080;-69
2021/10/24 00:44:33;;;;;;;10.93;7.05;;;;;;;7.42;74.84;95827.84;5131717;27;20027;-68
2021/10/24 00:47:00;;;;;;;15.02;7.95;;;;;;;7.42;75.52;95827.84;5130493;28;20038;-68
2021/10/24 00:49:25;;;;;;;14.65;9.18;;;;;;;7.42;75.41;95822.69;5130553;28;20461;-69
2021/10/24 00:51:51;;;;;;;16.17;8.50;;;;;;;7.48;73.96;95817.16;5130508;28;20031;-68
2021/10/24 00:54:22;;;;;;;18.42;10.20;;;;;;;7.41;74.20;95813.25;5113395;28;20027;-68
2021/10/24 00:56:49;;;;;;;18.20;10.98;;;;;;;7.41;74.55;95818.44;5113587;28;20058;-68
2021/10/24 00:59:15;;;;;;;15.88;10.07;;;;;;;7.39;74.88;95812.50;5130470;28;20027;-69
2021/10/24 01:01:40;;;;;;;22.98;11.63;;;;;;;7.35;74.19;95804.09;5130417;28;20118;-69
2021/10/24 01:04:06;;;;;;;16.35;9.73;;;;;;;7.42;74.30;95820.09;5130330;28;20038;-68
2021/10/24 01:06:32;;;;;;;20.30;11.88;;;;;;;7.34;74.95;95810.16;5130443;28;20035;-68
2021/10/24 01:08:57;;;;;;;20.70;11.65;;;;;;;7.29;75.19;95808.75;5131596;27;20052;-69
2021/10/24 01:11:24;;;;;;;18.33;11.00;;;;;;;7.35;75.22;95811.00;5113334;27;20027;-68
2021/10/24 01:13:49;;;;;;;17.85;10.63;;;;;;;7.29;74.95;95803.56;5134451;27;20493;-68
2021/10/24 01:16:16;;;;;;;21.08;10.50;;;;;;;7.33;74.90;95810.25;5117255;27;20035;-69
2021/10/24 01:18:41;;;;;;;18.27;10.75;;;;;;;7.29;74.78;95801.00;5117642;27;20080;-69
2021/10/24 01:21:07;;;;;;;18.50;10.18;;;;;;;7.37;74.73;95815.16;5134316;27;20032;-68
2021/10/24 01:23:32;;;;;;;19.10;11.63;;;;;;;7.31;74.84;95806.91;5134224;27;20030;-70
2021/10/24 01:25:59;;;;;;;16.45;10.60;;;;;;;7.44;74.16;95813.09;5135504;27;20537;-68
2021/10/24 01:28:24;;;;;;;18.15;10.20;;;;;;;7.39;73.99;95821.09;5117241;27;20080;-69
2021/10/24 01:30:51;;;;;;;18.30;9.63;;;;;;;7.40;74.26;95811.56;5134005;27;20042;-68
2021/10/24 01:33:17;;;;;;;21.00;11.00;;;;;;;7.41;74.19;95805.50;5117311;27;20130;-68
2021/10/24 01:35:58;;;;;;;17.83;11.10;;;;;;;7.41;74.27;95815.84;5135209;27;20031;-68
2021/10/24 01:38:24;;;;;;;21.75;10.60;;;;;;;7.46;73.59;95816.41;5134065;27;20019;-68
2021/10/24 01:40:50;;;;;;;18.90;10.45;;;;;;;7.42;73.32;95812.34;5116759;27;20428;-68
2021/10/24 01:43:16;;;;;;;19.30;11.18;;;;;;;7.40;74.30;95819.34;5133962;27;20019;-69
2021/10/24 01:45:41;;;;;;;19.77;10.88;;;;;;;7.41;73.64;95817.56;5116810;27;20039;-69
2021/10/24 01:48:07;;;;;;;16.83;9.70;;;;;;;7.44;73.17;95818.25;5133833;27;20481;-69
2021/10/24 01:50:32;;;;;;;19.63;10.60;;;;;;;7.28;73.93;95807.09;5099605;27;20023;-68
2021/10/24 01:52:58;;;;;;;20.17;11.75;;;;;;;7.34;74.26;95824.84;5116613;27;20031;-68
2021/10/24 01:55:23;;;;;;;25.52;12.85;;;;;;;7.35;74.16;95827.34;5133585;27;20027;-68
2021/10/24 01:57:51;;;;;;;21.02;11.77;;;;;;;7.30;74.09;95811.25;5099423;27;20062;-68
2021/10/24 02:00:16;;;;;;;23.17;12.75;;;;;;;7.36;74.17;95836.78;5116638;27;20027;-69
2021/10/24 02:02:42;;;;;;;25.95;13.40;;;;;;;7.36;74.40;95830.78;5116342;27;20088;-68
2021/10/24 02:05:08;;;;;;;22.92;13.70;;;;;;;7.37;74.59;95840.19;5133464;27;20050;-69
2021/10/24 02:07:33;;;;;;;23.00;13.43;;;;;;;7.31;74.22;95836.19;5116535;27;20459;-68
2021/10/24 02:09:58;;;;;;;22.75;13.45;;;;;;;7.31;74.36;95833.59;5116246;27;20412;-68
2021/10/24 02:12:24;;;;;;;25.35;15.07;;;;;;;7.26;74.35;95827.84;5133179;27;20028;-68
2021/10/24 02:14:49;;;;;;;25.88;14.20;;;;;;;7.31;74.43;95832.75;5133353;27;20023;-68
2021/10/24 02:17:15;;;;;;;26.10;14.98;;;;;;;7.34;74.24;95848.09;5116238;27;20039;-68
2021/10/24 02:19:40;;;;;;;27.65;15.50;;;;;;;7.22;74.27;95844.44;5134474;27;20619;-69
2021/10/24 02:22:06;;;;;;;24.30;13.40;;;;;;;7.28;74.41;95854.44;5133373;27;20038;-68
2021/10/24 02:24:32;;;;;;;29.67;15.18;;;;;;;7.23;74.44;95842.69;5132016;27;20080;-68
2021/10/24 02:26:57;;;;;;;30.13;15.43;;;;;;;7.25;74.53;95859.78;5134584;27;20035;-68
2021/10/24 02:29:23;;;;;;;27.15;15.07;;;;;;;7.24;74.41;95859.84;5134290;27;20072;-68
2021/10/24 02:31:48;;;;;;;26.88;14.48;;;;;;;7.05;74.14;95819.50;5132667;27;20043;-68
2021/10/24 02:34:14;;;;;;;28.10;15.02;;;;;;;7.19;73.78;95843.75;5134242;27;20037;-68
2021/10/24 02:36:39;;;;;;;26.20;14.38;;;;;;;7.28;73.03;95861.38;5134297;27;20031;-68
2021/10/24 02:39:05;;;;;;;41.10;18.15;;;;;;;7.21;73.76;95860.00;5132863;27;20038;-68
2021/10/24 02:41:30;;;;;;;35.50;16.63;;;;;;;7.19;73.64;95872.16;5115686;27;20035;-68
2021/10/24 02:43:55;;;;;;;33.53;16.45;;;;;;;7.15;73.99;95869.75;5115465;27;20038;-68
2021/10/24 02:46:21;;;;;;;28.08;15.27;;;;;;;7.18;73.39;95867.94;5132709;27;20031;-69
2021/10/24 02:48:46;;;;;;;28.00;15.20;;;;;;;7.18;73.68;95862.75;5132703;27;20023;-68
2021/10/24 02:51:12;;;;;;;29.67;16.00;;;;;;;7.14;73.93;95864.69;5132520;27;20068;-68
2021/10/24 02:53:37;;;;;;;29.90;15.68;;;;;;;7.12;73.83;95872.50;5115414;27;20034;-70
2021/10/24 02:56:03;;;;;;;28.00;15.85;;;;;;;7.14;73.67;95865.50;5115364;27;20035;-68
2021/10/24 02:58:29;;;;;;;30.98;16.15;;;;;;;7.15;73.96;95871.50;5132458;27;20511;-70
2021/10/24 03:00:54;;;;;;;28.58;15.10;;;;;;;7.10;73.30;95858.84;5132469;27;20108;-68
2021/10/24 03:03:20;;;;;;;30.85;16.55;;;;;;;7.17;73.64;95867.09;5133620;27;20474;-68
2021/10/24 03:05:45;;;;;;;36.63;16.63;;;;;;;7.20;73.38;95868.69;5132135;27;20027;-68
2021/10/24 03:08:11;;;;;;;32.40;17.23;;;;;;;7.21;73.07;95873.75;5133551;27;20031;-68
2021/10/24 03:10:36;;;;;;;29.58;15.88;;;;;;;7.20;72.97;95866.94;5115026;27;20031;-68
2021/10/24 03:13:04;;;;;;;29.63;15.50;;;;;;;7.07;73.09;95856.41;5133343;27;20031;-68
2021/10/24 03:15:29;;;;;;;30.80;17.48;;;;;;;7.13;73.09;95878.50;5132153;27;20023;-68
2021/10/24 03:17:55;;;;;;;33.95;17.50;;;;;;;7.16;72.90;95876.59;5114804;27;20034;-68
2021/10/24 03:20:20;;;;;;;29.40;16.38;;;;;;;7.18;72.81;95873.09;5133175;27;20378;-69
2021/10/24 03:22:46;;;;;;;29.83;16.58;;;;;;;7.16;73.40;95871.44;5114686;27;20474;-69
2021/10/24 03:25:13;;;;;;;30.80;17.52;;;;;;;7.13;72.70;95865.56;5133068;27;20031;-68
2021/10/24 03:27:38;;;;;;;34.78;17.50;;;;;;;7.07;72.81;95858.97;5115033;27;20043;-68
2021/10/24 03:30:04;;;;;;;39.03;18.50;;;;;;;7.15;73.10;95869.75;5131856;27;20458;-68
2021/10/24 03:32:30;;;;;;;33.92;17.95;;;;;;;7.12;72.62;95874.25;5131671;27;20051;-69
2021/10/24 03:34:55;;;;;;;30.92;17.13;;;;;;;7.19;72.19;95877.34;5131580;27;20038;-68
2021/10/24 03:37:20;;;;;;;31.20;16.15;;;;;;;7.16;72.44;95876.59;5131822;27;20084;-68
2021/10/24 03:39:46;;;;;;;32.35;16.83;;;;;;;7.16;72.10;95873.19;5131715;27;20035;-69
2021/10/24 03:42:11;;;;;;;30.13;17.00;;;;;;;7.16;71.64;95866.28;5131699;27;20162;-68
2021/10/24 03:44:37;;;;;;;28.95;14.93;;;;;;;7.22;72.10;95874.63;5114421;27;20031;-68
2021/10/24 03:47:03;;;;;;;29.70;17.25;;;;;;;7.21;71.65;95872.94;5131617;27;20032;-69
2021/10/24 03:49:28;;;;;;;32.92;17.65;;;;;;;7.20;71.40;95877.28;5131488;27;20025;-69
2021/10/24 03:51:53;;;;;;;32.65;16.17;;;;;;;7.17;72.06;95869.69;5131494;27;20035;-68
2021/10/24 03:54:19;;;;;;;28.77;17.08;;;;;;;7.13;72.72;95876.78;5132637;27;20027;-69
2021/10/24 03:56:44;;;;;;;27.00;15.55;;;;;;;7.15;72.76;95880.09;5131395;27;20046;-69
2021/10/24 03:59:10;;;;;;;27.73;15.63;;;;;;;7.22;72.48;95893.53;5131309;27;20035;-68
2021/10/24 04:01:35;;;;;;;31.27;16.77;;;;;;;7.16;71.48;95883.53;5132613;27;20038;-69
2021/10/24 04:04:01;;;;;;;30.83;16.33;;;;;;;7.08;72.01;95886.50;5132390;27;20031;-68
2021/10/24 04:06:27;;;;;;;27.60;15.82;;;;;;;7.15;72.38;95890.41;5131133;27;20035;-68
2021/10/24 04:08:52;;;;;;;29.40;17.20;;;;;;;7.11;71.68;95888.94;5113988;27;20164;-68
2021/10/24 04:11:19;;;;;;;30.23;16.73;;;;;;;7.11;71.59;95888.94;5131111;27;20035;-68
2021/10/24 04:13:44;;;;;;;29.67;16.95;;;;;;;7.15;71.20;95887.84;5131003;27;20458;-69
2021/10/24 04:16:10;;;;;;;31.15;16.08;;;;;;;7.20;70.36;95877.28;5113789;27;20031;-68
2021/10/24 04:18:35;;;;;;;32.25;16.50;;;;;;;7.11;70.65;95870.84;5113878;27;20031;-68
2021/10/24 04:21:00;;;;;;;30.40;17.58;;;;;;;7.19;71.28;95885.09;5132043;27;20053;-68
2021/10/24 04:23:26;;;;;;;30.40;16.52;;;;;;;7.20;71.46;95889.38;5132113;27;20058;-68
2021/10/24 04:25:51;;;;;;;29.63;16.23;;;;;;;7.14;70.28;95875.84;5132045;27;20038;-68
2021/10/24 04:28:17;;;;;;;30.35;16.67;;;;;;;7.11;71.42;95878.59;5130892;27;20023;-68
2021/10/24 04:30:43;;;;;;;29.00;16.92;;;;;;;7.12;70.70;95885.41;5130530;27;20056;-68
2021/10/24 04:33:09;;;;;;;31.02;16.90;;;;;;;7.06;71.33;95877.16;5132086;27;20407;-68
2021/10/24 04:35:34;;;;;;;33.65;17.23;;;;;;;7.02;71.07;95876.50;5131775;27;20030;-68
2021/10/24 04:38:00;;;;;;;28.80;16.70;;;;;;;7.00;70.69;95882.66;5113440;27;20906;-68
2021/10/24 04:40:25;;;;;;;29.13;16.80;;;;;;;6.93;70.77;95869.19;5131877;27;20027;-68
2021/10/24 04:42:51;;;;;;;28.75;16.83;;;;;;;7.01;71.05;95882.56;5113345;27;20416;-68
2021/10/24 04:45:16;;;;;;;33.60;17.63;;;;;;;7.03;70.38;95885.06;5130469;28;20038;-68
2021/10/24 04:47:42;;;;;;;29.52;16.75;;;;;;;6.95;70.67;95872.53;5112826;28;20035;-68
2021/10/24 04:50:08;;;;;;;33.95;16.92;;;;;;;7.02;70.87;95883.38;5130757;27;20061;-68
2021/10/24 04:52:34;;;;;;;32.67;16.42;;;;;;;7.05;69.67;95888.38;5132090;27;20492;-68
2021/10/24 04:55:00;;;;;;;35.33;17.52;;;;;;;6.79;69.21;95854.41;5130574;28;20114;-69
2021/10/24 04:57:25;;;;;;;26.33;14.38;;;;;;;6.96;69.27;95883.72;5110728;28;20471;-68
2021/10/24 04:59:51;;;;;;;27.70;16.75;;;;;;;6.86;69.48;95878.19;5087588;28;20033;-68
2021/10/24 05:02:16;;;;;;;30.15;15.90;;;;;;;6.95;69.12;95898.38;5113232;28;20035;-68
2021/10/24 05:04:42;;;;;;;28.42;16.00;;;;;;;6.90;68.91;95890.84;5128409;28;20031;-69
2021/10/24 05:07:07;;;;;;;29.80;14.93;;;;;;;6.88;69.15;95886.69;5131892;27;20055;-68
2021/10/24 05:09:32;;;;;;;29.10;15.88;;;;;;;6.89;68.98;95889.19;5113232;28;20019;-68
2021/10/24 05:11:58;;;;;;;27.08;15.77;;;;;;;6.93;68.51;95905.38;5113132;28;20031;-68
2021/10/24 05:14:23;;;;;;;30.30;15.48;;;;;;;6.92;69.05;95908.88;5131560;27;20042;-68
2021/10/24 05:16:49;;;;;;;31.25;15.35;;;;;;;6.92;69.20;95911.47;5112954;28;20091;-68
2021/10/24 05:19:14;;;;;;;26.60;15.20;;;;;;;6.92;68.98;95917.44;5130298;27;20027;-68
2021/10/24 05:21:39;;;;;;;30.58;15.85;;;;;;;6.94;69.04;95917.38;5131665;27;20030;-68
2021/10/24 05:24:05;;;;;;;24.73;14.75;;;;;;;6.99;68.50;95924.88;5113076;28;20023;-68
2021/10/24 05:26:30;;;;;;;28.52;16.20;;;;;;;6.98;68.45;95924.06;5131308;27;20031;-68
2021/10/24 05:28:56;;;;;;;25.98;14.02;;;;;;;7.06;67.39;95932.25;5130176;28;20448;-68
2021/10/24 05:31:22;;;;;;;30.27;14.88;;;;;;;6.97;67.27;95922.41;5112824;28;20039;-68
2021/10/24 05:33:47;;;;;;;31.70;15.38;;;;;;;6.98;67.50;95933.56;5131352;27;20023;-68
2021/10/24 05:36:12;;;;;;;25.73;15.27;;;;;;;6.93;68.11;95929.44;5130107;28;20023;-68
2021/10/24 05:38:38;;;;;;;28.88;15.63;;;;;;;6.85;68.31;95920.41;5130137;28;20038;-68
2021/10/24 05:41:03;;;;;;;26.85;15.10;;;;;;;6.93;68.72;95929.44;5131148;27;20076;-68
2021/10/24 05:43:29;;;;;;;30.27;15.35;;;;;;;7.00;68.19;95932.56;5112850;28;20438;-68
2021/10/24 05:45:54;;;;;;;24.33;14.95;;;;;;;7.05;68.23;95945.22;5129933;28;20088;-68
2021/10/24 05:48:20;;;;;;;30.38;16.25;;;;;;;7.08;68.06;95943.34;5130083;28;20246;-69
2021/10/24 05:50:45;;;;;;;28.77;15.60;;;;;;;7.07;68.22;95938.25;5129924;28;20046;-68
2021/10/24 05:53:11;;;;;;;24.25;14.05;;;;;;;7.11;68.23;95950.13;5112857;28;20028;-68
2021/10/24 05:55:36;;;;;;;26.08;14.98;;;;;;;7.07;68.33;95931.31;5129969;28;20035;-70
2021/10/24 05:58:02;;;;;;;28.45;14.73;;;;;;;7.15;67.91;95951.63;5112794;28;20030;-69
2021/10/24 06:00:28;;;;;;;29.40;16.08;;;;;;;7.13;67.94;95949.13;5134533;27;20046;-68
2021/10/24 06:02:54;;;;;;;35.92;18.73;;;;;;;7.19;67.91;95962.63;5116382;27;20488;-69
2021/10/24 06:05:19;;;;;;;36.67;19.35;;;;;;;7.21;67.54;95956.47;5133383;27;20038;-68
2021/10/24 06:07:45;;;;;;;56.58;26.38;;;;;;;7.28;67.01;95957.00;5133381;27;20503;-68
2021/10/24 06:10:17;;;;;;;56.38;28.05;;;;;;;7.26;67.17;95958.81;5133353;27;20032;-69
2021/10/24 06:12:51;;;;;;;40.03;21.48;;;;;;;7.23;67.03;95957.22;5117116;27;20058;-68
2021/10/24 06:15:17;;;;;;;53.70;23.85;;;;;;;7.25;66.11;95967.50;5117237;27;20055;-69
2021/10/24 06:17:46;;;;;;;38.35;17.98;;;;;;;7.18;67.30;95969.53;5099048;27;20027;-69
2021/10/24 06:20:11;;;;;;;47.15;22.13;;;;;;;7.21;67.16;95974.56;5099107;27;20401;-69
2021/10/24 06:22:37;;;;;;;36.30;18.15;;;;;;;7.31;66.67;95987.84;5133011;27;20037;-68
2021/10/24 06:25:03;;;;;;;29.48;16.15;;;;;;;7.21;65.90;95978.91;5115849;27;20023;-69
2021/10/24 06:27:28;;;;;;;52.80;25.95;;;;;;;7.31;66.49;95988.69;5116001;27;20033;-68
2021/10/24 06:29:54;;;;;;;34.28;17.95;;;;;;;7.26;66.78;95972.56;5098894;27;20068;-68
2021/10/24 06:32:19;;;;;;;38.60;19.35;;;;;;;7.33;66.05;95994.63;5132923;27;20066;-68
2021/10/24 06:34:44;;;;;;;41.67;21.50;;;;;;;7.34;66.64;95987.69;5132958;27;20027;-68
2021/10/24 06:37:10;;;;;;;37.90;19.02;;;;;;;7.41;66.58;95994.25;5115854;27;20042;-68
2021/10/24 06:39:35;;;;;;;34.65;19.30;;;;;;;7.42;66.25;95989.91;5132877;27;20031;-68
2021/10/24 06:42:01;;;;;;;34.92;18.42;;;;;;;7.43;65.88;95991.56;5134388;27;20031;-70
2021/10/24 06:44:26;;;;;;;35.92;19.40;;;;;;;7.48;67.10;95993.00;5133959;27;20039;-69
2021/10/24 06:46:51;;;;;;;25.73;15.13;;;;;;;7.55;66.39;96004.69;5132778;27;20514;-68
2021/10/24 06:49:17;;;;;;;30.92;17.83;;;;;;;7.54;65.48;96013.34;5132736;27;20454;-68
2021/10/24 06:51:42;;;;;;;30.63;16.55;;;;;;;7.52;65.97;95994.50;5115437;27;20492;-68
2021/10/24 06:54:08;;;;;;;32.22;17.92;;;;;;;7.57;65.08;96000.25;5133815;27;20023;-68
2021/10/24 06:56:33;;;;;;;30.00;15.68;;;;;;;7.59;65.68;96002.78;5115318;27;20043;-68
2021/10/24 06:58:59;;;;;;;26.40;16.30;;;;;;;7.66;65.67;96008.44;5132575;27;20027;-68
2021/10/24 07:01:24;;;;;;;31.42;17.05;;;;;;;7.77;65.06;96007.00;5133826;27;20493;-68
2021/10/24 07:03:50;;;;;;;30.55;16.63;;;;;;;7.82;65.00;96015.31;5132251;27;20030;-68
2021/10/24 07:06:16;;;;;;;32.95;17.20;;;;;;;7.82;65.18;96004.16;5132309;27;20038;-68
2021/10/24 07:08:42;;;;;;;31.42;17.48;;;;;;;7.89;65.40;96002.91;5132241;27;20027;-69
2021/10/24 07:11:07;;;;;;;29.88;15.88;;;;;;;7.99;65.09;96011.00;5097625;27;20457;-68
2021/10/24 07:13:32;;;;;;;28.95;17.45;;;;;;;7.88;64.37;96003.81;5132093;27;20027;-68
2021/10/24 07:15:58;;;;;;;32.42;17.52;;;;;;;8.01;64.50;96004.84;5133463;27;20031;-68
2021/10/24 07:18:23;;;;;;;29.45;15.77;;;;;;;8.09;64.28;96011.38;5132137;27;20020;-68
2021/10/24 07:20:49;;;;;;;28.50;16.80;;;;;;;8.01;63.26;96015.19;5133278;27;20031;-69
2021/10/24 07:23:14;;;;;;;27.55;15.90;;;;;;;7.94;63.54;96013.00;5133286;27;20026;-68
2021/10/24 07:25:39;;;;;;;28.27;16.02;;;;;;;7.96;62.66;96013.75;5131886;27;20031;-68
2021/10/24 07:28:05;;;;;;;25.23;14.88;;;;;;;7.84;62.06;95997.97;5131796;27;20416;-68
2021/10/24 07:30:31;;;;;;;25.25;14.25;;;;;;;7.76;61.61;96009.66;5097807;27;20019;-68
2021/10/24 07:32:57;;;;;;;27.55;14.73;;;;;;;7.81;61.62;96024.00;5114604;27;20047;-68
2021/10/24 07:35:22;;;;;;;27.02;15.45;;;;;;;7.68;62.09;95996.28;5131766;27;20102;-68
2021/10/24 07:37:47;;;;;;;40.97;21.73;;;;;;;8.06;63.09;96017.53;5131600;27;20023;-69
2021/10/24 07:40:13;;;;;;;33.47;16.63;;;;;;;8.19;59.85;96007.34;5131773;27;20027;-68
2021/10/24 07:42:39;;;;;;;31.27;17.52;;;;;;;8.28;61.04;96012.03;5131797;27;20087;-69
2021/10/24 07:45:05;;;;;;;26.02;15.68;;;;;;;8.50;62.11;96035.03;5131510;27;20031;-69
2021/10/24 07:47:30;;;;;;;23.13;14.25;;;;;;;8.67;61.36;96021.97;5114597;27;20042;-68
2021/10/24 07:50:07;;;;;;;26.80;14.68;;;;;;;8.99;60.87;96028.84;5131482;27;20026;-69
2021/10/24 07:52:32;;;;;;;22.73;13.45;;;;;;;9.17;60.07;96023.44;5097536;27;20428;-68
2021/10/24 07:54:58;;;;;;;23.33;13.77;;;;;;;9.14;57.61;96020.19;5131451;27;20031;-68
2021/10/24 07:57:23;;;;;;;19.55;12.73;;;;;;;9.12;58.13;96020.25;5131465;27;20046;-69
2021/10/24 07:59:49;;;;;;;22.20;13.35;;;;;;;9.06;57.65;96028.41;5132507;27;20039;-68
2021/10/24 08:02:18;;;;;;;23.40;13.65;;;;;;;8.94;56.37;96032.53;5132880;27;20111;-68
2021/10/24 08:04:44;;;;;;;23.45;13.40;;;;;;;8.72;55.96;96029.50;5114574;27;20034;-68
2021/10/24 08:07:10;;;;;;;27.17;15.57;;;;;;;8.73;56.80;96038.94;5131281;27;20454;-68
2021/10/24 08:09:35;;;;;;;30.13;15.07;;;;;;;8.62;57.50;96018.78;5131149;27;20059;-68
2021/10/24 08:12:01;;;;;;;25.92;14.07;;;;;;;8.64;57.86;96019.56;5132623;27;20030;-68
2021/10/24 08:14:26;;;;;;;29.02;16.30;;;;;;;8.86;58.15;96042.50;5113986;27;20062;-68
2021/10/24 08:16:52;;;;;;;23.10;13.75;;;;;;;9.08;58.19;96043.84;5131218;27;20091;-68
2021/10/24 08:19:17;;;;;;;29.75;15.50;;;;;;;9.30;58.19;96040.84;5113938;27;20106;-69
2021/10/24 08:21:43;;;;;;;26.50;15.13;;;;;;;9.48;56.22;96042.38;5130158;27;20027;-69
2021/10/24 08:24:08;;;;;;;23.80;13.70;;;;;;;9.53;56.68;96047.31;5130825;27;20037;-68
2021/10/24 08:26:34;;;;;;;21.20;12.88;;;;;;;9.66;55.49;96052.59;5132299;27;20044;-68
2021/10/24 08:29:00;;;;;;;18.67;11.93;;;;;;;9.74;54.12;96043.41;5130841;27;20015;-69
2021/10/24 08:31:28;;;;;;;19.42;12.00;;;;;;;9.77;54.09;96043.22;5113460;27;20034;-68
2021/10/24 08:33:54;;;;;;;51.70;25.33;;;;;;;9.83;54.17;96042.88;5131976;27;20088;-68
2021/10/24 08:36:20;;;;;;;23.92;12.40;;;;;;;10.00;53.66;96047.03;5113722;27;20492;-68
2021/10/24 08:38:45;;;;;;;20.80;13.27;;;;;;;10.02;52.37;96037.38;5096597;27;20057;-68
2021/10/24 08:41:12;;;;;;;21.75;12.43;;;;;;;10.04;52.33;96019.13;5132345;27;20047;-68
2021/10/24 08:43:38;;;;;;;22.92;13.55;;;;;;;10.31;53.91;96031.34;5113485;27;20031;-69
2021/10/24 08:46:05;;;;;;;24.10;15.27;;;;;;;10.52;53.89;96040.41;5131661;27;20470;-68
2021/10/24 08:48:34;;;;;;;20.98;12.38;;;;;;;10.58;53.63;96039.16;5130585;28;20106;-69
2021/10/24 08:50:59;;;;;;;17.92;10.75;;;;;;;10.74;50.89;96037.25;5130515;28;20114;-68
2021/10/24 08:53:25;;;;;;;15.70;9.85;;;;;;;10.81;50.43;96035.09;5113517;28;20035;-69
2021/10/24 08:55:51;;;;;;;12.52;8.70;;;;;;;10.87;49.28;96035.56;5113271;28;20035;-68
2021/10/24 08:58:17;;;;;;;18.33;9.68;;;;;;;10.88;50.31;96033.78;5130549;28;20042;-69
2021/10/24 09:00:42;;;;;;;19.00;10.30;;;;;;;11.03;49.99;96040.59;5130208;28;20039;-68
2021/10/24 09:03:11;;;;;;;16.42;10.45;;;;;;;11.03;47.79;96017.19;5130511;28;20039;-68
2021/10/24 09:05:44;;;;;;;16.70;10.07;;;;;;;10.93;48.87;96023.91;5130319;28;20439;-69
2021/10/24 09:08:14;;;;;;;19.75;11.40;;;;;;;10.94;49.12;96038.56;5130369;28;20421;-68
2021/10/24 09:10:54;;;;;;;18.95;12.20;;;;;;;11.03;49.88;96029.34;5130418;28;20035;-69
2021/10/24 09:13:29;;;;;;;17.02;11.00;;;;;;;11.20;49.78;96031.69;5097586;28;20042;-68
2021/10/24 09:16:02;;;;;;;16.80;10.77;;;;;;;11.33;50.47;96039.50;5130454;28;20113;-69
2021/10/24 09:18:37;;;;;;;16.63;10.00;;;;;;;11.46;49.95;96048.16;5114176;28;20444;-69
2021/10/24 09:21:14;;;;;;;22.98;13.98;;;;;;;11.55;49.52;96038.91;5130318;28;20098;-69
2021/10/24 09:23:42;;;;;;;22.77;14.35;;;;;;;11.59;47.74;96035.16;5131358;27;20081;-69
2021/10/24 09:26:18;;;;;;;17.38;11.43;;;;;;;11.55;47.08;96046.72;5130213;28;20065;-68
2021/10/24 09:28:59;;;;;;;17.40;9.80;;;;;;;11.33;46.93;96034.28;5130392;28;20037;-68
2021/10/24 09:31:52;;;;;;;14.93;10.48;;;;;;;11.49;46.74;96031.50;5114386;28;20118;-68
2021/10/24 09:34:22;;;;;;;15.85;9.88;;;;;;;11.48;46.76;96022.88;5128927;27;20039;-68
2021/10/24 09:36:53;;;;;;;13.25;8.75;;;;;;;11.45;47.30;96046.50;5134148;27;20031;-69
2021/10/24 09:39:19;;;;;;;19.60;9.13;;;;;;;11.51;47.71;96043.50;5133959;27;20031;-69
2021/10/24 09:41:45;;;;;;;17.60;10.73;;;;;;;11.49;46.73;96032.34;5117024;27;20035;-69
2021/10/24 09:44:11;;;;;;;13.93;9.10;;;;;;;11.56;46.84;96027.53;5133927;27;20028;-71
2021/10/24 09:46:37;;;;;;;15.38;9.48;;;;;;;11.70;46.54;96019.66;5099916;27;20446;-70
2021/10/24 09:49:02;;;;;;;15.27;8.07;;;;;;;11.70;45.48;96029.22;5116916;27;20038;-69
2021/10/24 09:51:37;;;;;;;15.32;9.20;;;;;;;11.65;45.55;96028.72;5116406;27;20035;-69
2021/10/24 09:54:04;;;;;;;15.07;9.93;;;;;;;11.70;45.04;96035.28;5133771;27;20034;-69
2021/10/24 09:56:29;;;;;;;13.75;7.40;;;;;;;11.66;45.01;96038.19;5116904;27;20042;-69
2021/10/24 09:58:55;;;;;;;12.07;7.45;;;;;;;11.69;45.03;96036.19;5116570;27;20019;-69
2021/10/24 10:01:21;;;;;;;13.00;8.13;;;;;;;11.75;45.86;96043.59;5133609;27;20027;-71
2021/10/24 10:03:49;;;;;;;13.93;8.50;;;;;;;11.87;45.35;96044.56;5133418;27;20046;-69
2021/10/24 10:06:17;;;;;;;14.65;9.18;;;;;;;11.89;44.52;96028.81;5133416;27;20073;-69
2021/10/24 10:08:44;;;;;;;17.08;9.70;;;;;;;11.78;43.54;96019.13;5133433;27;20058;-69
2021/10/24 10:11:11;;;;;;;11.77;7.70;;;;;;;11.86;42.83;96035.06;5116511;27;20027;-69
2021/10/24 10:13:40;;;;;;;13.00;8.30;;;;;;;11.77;42.49;96026.09;5133345;27;20031;-69
2021/10/24 10:16:09;;;;;;;13.85;8.10;;;;;;;11.73;43.26;96029.00;5116436;27;20027;-69
2021/10/24 10:18:56;;;;;;;13.88;8.50;;;;;;;11.73;43.78;96029.00;5134491;27;20102;-69
2021/10/24 10:21:37;;;;;;;14.25;8.27;;;;;;;11.70;43.11;96037.88;5134395;27;20045;-70
2021/10/24 10:24:04;;;;;;;14.25;9.18;;;;;;;11.73;42.90;96031.59;5133211;27;20070;-69
2021/10/24 10:26:40;;;;;;;11.77;6.78;;;;;;;11.77;43.08;96036.50;5116164;27;20043;-69
2021/10/24 10:29:36;;;;;;;15.05;7.88;;;;;;;11.74;42.95;96023.69;5133225;27;20516;-69
2021/10/24 10:32:13;;;;;;;12.18;6.38;;;;;;;11.73;42.55;96015.97;5134190;27;20058;-69
2021/10/24 10:34:57;;;;;;;10.15;6.05;;;;;;;11.82;43.37;96012.78;5132868;27;20031;-69
2021/10/24 10:37:50;;;;;;;11.75;8.30;;;;;;;11.83;42.36;96019.63;5134475;27;20034;-69
2021/10/24 10:40:19;;;;;;;9.68;6.07;;;;;;;11.82;42.35;96017.97;5134120;27;20047;-71
2021/10/24 10:42:45;;;;;;;17.73;9.57;;;;;;;11.83;42.39;96014.44;5133948;27;20064;-69
2021/10/24 10:45:14;;;;;;;10.02;6.38;;;;;;;11.81;42.20;96018.91;5133014;27;20027;-70
2021/10/24 10:47:48;;;;;;;11.75;7.10;;;;;;;11.91;42.33;96019.97;5132753;27;20035;-69
2021/10/24 10:50:29;;;;;;;10.85;6.53;;;;;;;11.92;42.00;96011.22;5133896;27;20027;-69
2021/10/24 10:52:55;;;;;;;15.20;10.02;;;;;;;11.95;42.52;96013.63;5133789;27;20034;-69
2021/10/24 10:55:21;;;;;;;15.60;8.90;;;;;;;11.97;41.32;96003.91;5115327;27;20122;-69
2021/10/24 10:57:47;;;;;;;10.35;6.47;;;;;;;11.99;41.97;96012.47;5133642;27;20026;-68
2021/10/24 11:00:32;;;;;;;12.32;7.65;;;;;;;12.00;42.36;95995.06;5107808;27;20450;-69
2021/10/24 11:02:58;;;;;;;12.35;8.60;;;;;;;12.01;42.40;95987.16;5133004;27;20058;-69
2021/10/24 11:05:36;;;;;;;11.60;8.35;;;;;;;12.07;42.42;95984.13;5113954;27;20027;-69
2021/10/24 11:08:02;;;;;;;10.98;6.75;;;;;;;12.02;41.44;95988.81;5115019;27;20019;-69
2021/10/24 11:10:46;;;;;;;13.85;8.77;;;;;;;12.00;42.01;95988.06;5098154;27;20475;-69
2021/10/24 11:13:30;;;;;;;10.57;6.95;;;;;;;12.15;42.39;95994.00;5115212;27;20023;-69
2021/10/24 11:15:56;;;;;;;11.60;7.47;;;;;;;12.22;42.48;95994.38;5133450;27;20035;-69
2021/10/24 11:18:31;;;;;;;14.48;8.73;;;;;;;12.21;42.73;96003.16;5132140;27;20027;-69
2021/10/24 11:20:56;;;;;;;12.20;7.72;;;;;;;12.17;42.33;95999.09;5114829;27;20073;-69
2021/10/24 11:23:22;;;;;;;12.90;7.63;;;;;;;12.08;41.33;95996.19;5114955;27;20031;-69